Arklow Wind — EIKZ — position and weather

sailwx.info

Track history (hours):
 
Tides and Currents Weather Stations Pressure Air Temp Water Temp Dewpoint Dewpoint Depression Visibility Wind Speed Wind Dir Waves Ship Positions

Arklow Wind

Last reported at 2015-Aug-30 06:32 UTC. Time now 2015-Aug-31 06:50 UTC.
Position N 58°31' W 002°37'.

Length 136 m; draft 8.5 m.

Type: Cargo ship. MMSI: 250506000.

Date/timePositionNaut miles runAvg speedWind from/ knotsBaromVisibWave heightAir tempDewpointWater temp
2015-Aug-30 06:32N 58°31' W 002°37'1313.6
2015-Aug-30 05:33N 58°39' W 002°58'1110.9
2015-Aug-30 04:33N 58°44' W 003°17'10 9.9
2015-Aug-30 03:33N 58°43' W 003°36'1211.7
2015-Aug-30 02:33N 58°42' W 003°59'1211.7
2015-Aug-30 01:33N 58°41' W 004°21'1111.2
2015-Aug-30 00:33N 58°41' W 004°43'1310.3
2015-Aug-29 23:18N 58°36' W 005°06'911.1
2015-Aug-29 22:27N 58°29' W 005°16'2412.2
2015-Aug-29 20:30N 58°09' W 005°42'1212.0
2015-Aug-29 19:31N 57°60' W 005°56'  
2015-Aug-27 12:24N 58°40' W 004°47'1112.8
2015-Aug-27 11:33N 58°41' W 004°26'1313.0
2015-Aug-27 10:33N 58°42' W 004°02'1312.8
2015-Aug-27 09:33N 58°42' W 003°37'1211.9
2015-Aug-27 08:33N 58°43' W 003°14'8 8.3
2015-Aug-27 07:33N 58°40' W 002°59'7 7.5
2015-Aug-27 06:33N 58°33' W 002°51'6212.5
2015-Aug-27 01:33N 57°42' W 001°44'1212.3
2015-Aug-27 00:33N 57°30' W 001°41'146 7.6
2015-Aug-26 05:22N 55°04' W 001°23'0 0.0
2015-Aug-26 04:31N 55°04' W 001°23'0 0.0
2015-Aug-26 03:19N 55°04' W 001°23'0 0.0
2015-Aug-26 02:25N 55°04' W 001°23'0 0.0
2015-Aug-25 18:33N 55°04' W 001°23'0 0.0
2015-Aug-25 17:27N 55°04' W 001°23'0 0.0
2015-Aug-25 15:27N 55°04' W 001°23'0 0.0
2015-Aug-25 00:33N 55°04' W 001°23'0 0.0
2015-Aug-24 21:27N 55°04' W 001°23'0 0.1
2015-Aug-24 20:33N 55°04' W 001°23'0 0.0
2015-Aug-24 19:33N 55°04' W 001°23'0 0.1
2015-Aug-24 18:18N 55°04' W 001°23'0 0.1
2015-Aug-24 17:33N 55°04' W 001°23'0 0.0
2015-Aug-24 16:33N 55°04' W 001°23'0 0.0
2015-Aug-24 15:30N 55°04' W 001°23'0 0.0
2015-Aug-24 14:27N 55°04' W 001°23'0 0.0
2015-Aug-24 13:33N 55°04' W 001°23'0 0.0
2015-Aug-24 12:33N 55°04' W 001°23'0 0.0
2015-Aug-24 11:30N 55°04' W 001°23'0 0.0
2015-Aug-24 10:30N 55°04' W 001°23'0 0.0
2015-Aug-24 09:33N 55°04' W 001°23'0 0.0
2015-Aug-24 08:33N 55°04' W 001°23'0 0.0
2015-Aug-24 07:33N 55°04' W 001°23'0 0.0
2015-Aug-24 06:33N 55°04' W 001°23'0 0.1
2015-Aug-24 04:29N 55°04' W 001°23'4 3.9
2015-Aug-24 03:33N 55°04' W 001°17'1 0.6
2015-Aug-24 02:31N 55°04' W 001°18'1 0.7
2015-Aug-24 01:32N 55°03' W 001°18'0 0.5
2015-Aug-24 00:32N 55°03' W 001°19'1 0.7
2015-Aug-23 23:33N 55°04' W 001°20'1 0.7
2015-Aug-23 22:32N 55°04' W 001°21'0 0.3
2015-Aug-23 21:32N 55°04' W 001°22'0 0.1
2015-Aug-23 20:32N 55°04' W 001°22'0 0.3
2015-Aug-23 19:32N 55°05' W 001°22'0 0.2
2015-Aug-23 18:32N 55°05' W 001°22'1 0.6
2015-Aug-23 17:32N 55°05' W 001°23'0 0.4
2015-Aug-23 16:30N 55°05' W 001°24'0 0.5
2015-Aug-23 15:30N 55°05' W 001°24'1 0.8
2015-Aug-23 14:30N 55°05' W 001°25'0 0.0
2015-Aug-23 13:29N 55°05' W 001°25'0 0.0
2015-Aug-23 12:32N 55°05' W 001°25'0 0.0
2015-Aug-23 10:32N 55°05' W 001°25'0 0.0
2015-Aug-23 09:29N 55°05' W 001°25'0 0.0
2015-Aug-23 08:23N 55°05' W 001°25'0 0.0
2015-Aug-23 07:32N 55°05' W 001°25'0 0.0
2015-Aug-23 06:26N 55°05' W 001°25'0 0.0
2015-Aug-23 05:29N 55°05' W 001°25'0 0.0
2015-Aug-23 04:29N 55°05' W 001°25'0 0.0
2015-Aug-23 03:32N 55°05' W 001°25'0 0.0
2015-Aug-23 02:32N 55°05' W 001°25'0 0.0
2015-Aug-23 01:32N 55°05' W 001°25'0 0.0
2015-Aug-23 00:32N 55°05' W 001°25'0 0.0
2015-Aug-22 23:32N 55°05' W 001°25'0 0.1
2015-Aug-22 22:23N 55°05' W 001°25'0 0.0
2015-Aug-22 21:14N 55°05' W 001°25'0 0.0
2015-Aug-22 20:26N 55°05' W 001°25'0 0.1
2015-Aug-22 19:32N 55°05' W 001°25'0 0.0
2015-Aug-22 18:29N 55°05' W 001°25'0 0.0
2015-Aug-22 17:32N 55°05' W 001°25'  
Track history (hours):
 
Tides and Currents Weather Stations Pressure Air Temp Water Temp Dewpoint Dewpoint Depression Visibility Wind Speed Wind Dir Waves Ship Positions

Arklow Wind

Last reported at 2015-Aug-30 06:32 UTC. Time now 2015-Aug-31 06:50 UTC.
Position N 58°31' W 002°37'.

Length 136 m; draft 8.5 m.

Type: Cargo ship. MMSI: 250506000.

Date/timePositionNaut miles runAvg speedWind from/ knotsBaromVisibWave heightAir tempDewpointWater temp
2015-Aug-30 06:32N 58°31' W 002°37'1313.6
2015-Aug-30 05:33N 58°39' W 002°58'1110.9
2015-Aug-30 04:33N 58°44' W 003°17'10 9.9
2015-Aug-30 03:33N 58°43' W 003°36'1211.7
2015-Aug-30 02:33N 58°42' W 003°59'1211.7
2015-Aug-30 01:33N 58°41' W 004°21'1111.2
2015-Aug-30 00:33N 58°41' W 004°43'1310.3
2015-Aug-29 23:18N 58°36' W 005°06'911.1
2015-Aug-29 22:27N 58°29' W 005°16'2412.2
2015-Aug-29 20:30N 58°09' W 005°42'1212.0
2015-Aug-29 19:31N 57°60' W 005°56'  
2015-Aug-27 12:24N 58°40' W 004°47'1112.8
2015-Aug-27 11:33N 58°41' W 004°26'1313.0
2015-Aug-27 10:33N 58°42' W 004°02'1312.8
2015-Aug-27 09:33N 58°42' W 003°37'1211.9
2015-Aug-27 08:33N 58°43' W 003°14'8 8.3
2015-Aug-27 07:33N 58°40' W 002°59'7 7.5
2015-Aug-27 06:33N 58°33' W 002°51'6212.5
2015-Aug-27 01:33N 57°42' W 001°44'1212.3
2015-Aug-27 00:33N 57°30' W 001°41'146 7.6
2015-Aug-26 05:22N 55°04' W 001°23'0 0.0
2015-Aug-26 04:31N 55°04' W 001°23'0 0.0
2015-Aug-26 03:19N 55°04' W 001°23'0 0.0
2015-Aug-26 02:25N 55°04' W 001°23'0 0.0
2015-Aug-25 18:33N 55°04' W 001°23'0 0.0
2015-Aug-25 17:27N 55°04' W 001°23'0 0.0
2015-Aug-25 15:27N 55°04' W 001°23'0 0.0
2015-Aug-25 00:33N 55°04' W 001°23'0 0.0
2015-Aug-24 21:27N 55°04' W 001°23'0 0.1
2015-Aug-24 20:33N 55°04' W 001°23'0 0.0
2015-Aug-24 19:33N 55°04' W 001°23'0 0.1
2015-Aug-24 18:18N 55°04' W 001°23'0 0.1
2015-Aug-24 17:33N 55°04' W 001°23'0 0.0
2015-Aug-24 16:33N 55°04' W 001°23'0 0.0
2015-Aug-24 15:30N 55°04' W 001°23'0 0.0
2015-Aug-24 14:27N 55°04' W 001°23'0 0.0
2015-Aug-24 13:33N 55°04' W 001°23'0 0.0
2015-Aug-24 12:33N 55°04' W 001°23'0 0.0
2015-Aug-24 11:30N 55°04' W 001°23'0 0.0
2015-Aug-24 10:30N 55°04' W 001°23'0 0.0
2015-Aug-24 09:33N 55°04' W 001°23'0 0.0
2015-Aug-24 08:33N 55°04' W 001°23'0 0.0
2015-Aug-24 07:33N 55°04' W 001°23'0 0.0
2015-Aug-24 06:33N 55°04' W 001°23'0 0.1
2015-Aug-24 04:29N 55°04' W 001°23'4 3.9
2015-Aug-24 03:33N 55°04' W 001°17'1 0.6
2015-Aug-24 02:31N 55°04' W 001°18'1 0.7
2015-Aug-24 01:32N 55°03' W 001°18'0 0.5
2015-Aug-24 00:32N 55°03' W 001°19'1 0.7
2015-Aug-23 23:33N 55°04' W 001°20'1 0.7
2015-Aug-23 22:32N 55°04' W 001°21'0 0.3
2015-Aug-23 21:32N 55°04' W 001°22'0 0.1
2015-Aug-23 20:32N 55°04' W 001°22'0 0.3
2015-Aug-23 19:32N 55°05' W 001°22'0 0.2
2015-Aug-23 18:32N 55°05' W 001°22'1 0.6
2015-Aug-23 17:32N 55°05' W 001°23'0 0.4
2015-Aug-23 16:30N 55°05' W 001°24'0 0.5
2015-Aug-23 15:30N 55°05' W 001°24'1 0.8
2015-Aug-23 14:30N 55°05' W 001°25'0 0.0
2015-Aug-23 13:29N 55°05' W 001°25'0 0.0
2015-Aug-23 12:32N 55°05' W 001°25'0 0.0
2015-Aug-23 10:32N 55°05' W 001°25'0 0.0
2015-Aug-23 09:29N 55°05' W 001°25'0 0.0
2015-Aug-23 08:23N 55°05' W 001°25'0 0.0
2015-Aug-23 07:32N 55°05' W 001°25'0 0.0
2015-Aug-23 06:26N 55°05' W 001°25'0 0.0
2015-Aug-23 05:29N 55°05' W 001°25'0 0.0
2015-Aug-23 04:29N 55°05' W 001°25'0 0.0
2015-Aug-23 03:32N 55°05' W 001°25'0 0.0
2015-Aug-23 02:32N 55°05' W 001°25'0 0.0
2015-Aug-23 01:32N 55°05' W 001°25'0 0.0
2015-Aug-23 00:32N 55°05' W 001°25'0 0.0
2015-Aug-22 23:32N 55°05' W 001°25'0 0.1
2015-Aug-22 22:23N 55°05' W 001°25'0 0.0
2015-Aug-22 21:14N 55°05' W 001°25'0 0.0
2015-Aug-22 20:26N 55°05' W 001°25'0 0.1
2015-Aug-22 19:32N 55°05' W 001°25'0 0.0
2015-Aug-22 18:29N 55°05' W 001°25'0 0.0
2015-Aug-22 17:32N 55°05' W 001°25'  

Dump ship's entire track history